createdAt,value
2023-03-20T00:47:48.541Z,72.82
2023-03-20T00:50:18.508Z,72.87
2023-03-20T00:52:46.064Z,73.73
2023-03-20T00:55:13.569Z,76.05
2023-03-20T00:57:45.546Z,76.36
2023-03-20T01:00:27.432Z,76.79
2023-03-20T01:02:58.945Z,76.16
2023-03-20T01:05:29.007Z,77.11
2023-03-20T01:07:57.004Z,76.36
2023-03-20T01:10:33.983Z,78.73
2023-03-20T01:13:02.752Z,77.89
2023-03-20T01:15:33.838Z,79.04
2023-03-20T01:18:02.969Z,78.36
2023-03-20T01:20:31.688Z,75.20
2023-03-20T01:22:59.226Z,74.24
2023-03-20T01:25:27.241Z,74.04
2023-03-20T01:27:57.958Z,73.28
2023-03-20T01:30:28.695Z,76.09
2023-03-20T01:32:57.187Z,75.85
2023-03-20T01:35:28.963Z,74.99
2023-03-20T01:37:57.557Z,74.11
2023-03-20T01:40:34.030Z,77.39
2023-03-20T01:43:03.258Z,77.94
2023-03-20T01:45:36.677Z,75.34
2023-03-20T01:48:15.876Z,73.42
2023-03-20T01:50:44.771Z,73.74
2023-03-20T01:53:16.831Z,73.07
2023-03-20T01:55:47.408Z,72.93
2023-03-20T01:58:20.684Z,72.72
2023-03-20T02:00:49.886Z,73.29
2023-03-20T02:03:18.928Z,74.26
2023-03-20T02:05:48.753Z,77.26
2023-03-20T02:08:26.645Z,79.21
2023-03-20T02:10:55.688Z,77.02
2023-03-20T02:13:25.408Z,76.59
2023-03-20T02:16:03.724Z,77.80
2023-03-20T02:18:32.264Z,77.16
2023-03-20T02:21:49.966Z,76.07
2023-03-20T02:25:02.213Z,75.58
2023-03-20T02:27:35.863Z,76.86
2023-03-20T02:30:39.047Z,76.79
2023-03-20T02:33:46.486Z,76.98
2023-03-20T02:36:49.454Z,76.23
2023-03-20T02:39:43.544Z,76.93
2023-03-20T02:42:19.735Z,76.60
2023-03-20T02:44:54.550Z,75.01
2023-03-20T02:47:27.557Z,76.17
2023-03-20T02:50:03.150Z,77.70
2023-03-20T02:52:40.571Z,76.71
2023-03-20T02:55:17.808Z,76.16
2023-03-20T02:57:53.021Z,76.14
2023-03-20T03:00:28.871Z,77.74
2023-03-20T03:03:06.475Z,77.88
2023-03-20T03:05:39.529Z,76.16
2023-03-20T03:08:10.776Z,74.62
2023-03-20T03:10:42.863Z,76.00
2023-03-20T03:13:16.197Z,78.70
2023-03-20T03:15:47.855Z,75.21
2023-03-20T03:18:20.336Z,77.87
2023-03-20T03:20:51.172Z,76.73
2023-03-20T03:23:24.331Z,74.57
2023-03-20T03:25:56.303Z,75.56
2023-03-20T03:28:30.225Z,74.95
2023-03-20T03:30:59.613Z,73.57
2023-03-20T03:33:31.190Z,77.36
2023-03-20T03:36:06.453Z,77.99
2023-03-20T03:38:44.540Z,76.81
2023-03-20T03:41:22.606Z,76.45
2023-03-20T03:43:56.825Z,75.46
2023-03-20T03:46:30.667Z,75.25
2023-03-20T03:48:59.632Z,77.78
2023-03-20T03:51:30.858Z,78.76
2023-03-20T03:54:03.247Z,76.09
2023-03-20T03:56:35.374Z,78.43
2023-03-20T03:59:07.616Z,77.25
2023-03-20T04:01:37.324Z,78.37
2023-03-20T04:04:09.550Z,79.26
2023-03-20T04:06:37.158Z,77.87
2023-03-20T04:09:04.903Z,78.83
2023-03-20T04:11:35.669Z,75.92
2023-03-20T04:14:03.163Z,76.98
2023-03-20T04:16:30.954Z,76.15
2023-03-20T04:18:58.868Z,76.31
2023-03-20T04:21:26.493Z,78.61
2023-03-20T04:23:54.057Z,78.73
2023-03-20T04:26:22.170Z,78.83
2023-03-20T04:28:51.043Z,77.39
2023-03-20T04:31:19.222Z,76.62
2023-03-20T04:33:47.400Z,77.56
2023-03-20T04:36:15.545Z,75.98
2023-03-20T04:38:43.083Z,76.74
2023-03-20T04:41:10.656Z,76.62
2023-03-20T04:43:38.146Z,74.90
2023-03-20T04:46:07.526Z,76.92
2023-03-20T04:48:35.456Z,77.22
2023-03-20T04:51:02.953Z,76.87
2023-03-20T04:53:30.463Z,76.55
2023-03-20T04:55:59.495Z,74.93
2023-03-20T04:58:28.901Z,76.27
2023-03-20T05:00:56.429Z,76.92
2023-03-20T05:03:25.386Z,75.68
2023-03-20T05:05:52.898Z,77.17
2023-03-20T05:08:20.591Z,76.62
2023-03-20T05:10:48.069Z,76.13
2023-03-20T05:13:15.676Z,74.61
2023-03-20T05:15:44.028Z,73.03
2023-03-20T05:18:11.780Z,73.23
2023-03-20T05:20:40.977Z,72.94
2023-03-20T05:23:08.495Z,74.36
2023-03-20T05:25:36.429Z,73.90
2023-03-20T05:28:04.264Z,74.89
2023-03-20T05:30:31.755Z,73.36
2023-03-20T05:32:59.265Z,74.94
2023-03-20T05:35:26.968Z,75.52
2023-03-20T05:37:55.809Z,72.93
2023-03-20T05:40:25.405Z,75.31
2023-03-20T05:42:53.524Z,72.57
2023-03-20T05:45:21.388Z,72.83
2023-03-20T05:47:48.996Z,74.43
2023-03-20T05:50:17.024Z,72.33
2023-03-20T05:52:47.236Z,72.36
2023-03-20T05:55:16.665Z,71.33
2023-03-20T05:57:44.218Z,71.24
2023-03-20T06:00:12.711Z,73.10
2023-03-20T06:02:40.246Z,74.61
2023-03-20T06:05:08.141Z,72.89
2023-03-20T06:07:35.686Z,74.18
2023-03-20T06:10:03.200Z,73.73
2023-03-20T06:12:32.045Z,71.79
2023-03-20T06:14:59.612Z,70.62
2023-03-20T06:17:27.163Z,71.99
2023-03-20T06:19:54.702Z,71.98
2023-03-20T06:22:22.273Z,73.49
2023-03-20T06:24:49.902Z,74.11
2023-03-20T06:27:17.489Z,73.18
2023-03-20T06:29:46.294Z,74.12
2023-03-20T06:32:14.715Z,71.50
2023-03-20T06:34:42.319Z,71.13
2023-03-20T06:37:09.966Z,71.15
2023-03-20T06:39:37.810Z,70.76
2023-03-20T06:42:05.357Z,73.28
2023-03-20T06:44:32.904Z,72.68
2023-03-20T06:47:02.575Z,71.81
2023-03-20T06:49:30.726Z,72.03
2023-03-20T06:51:59.498Z,73.49
2023-03-20T06:54:27.541Z,71.99
2023-03-20T06:56:56.829Z,72.95
2023-03-20T06:59:24.883Z,73.63
2023-03-20T07:01:52.727Z,72.06
2023-03-20T07:04:22.355Z,71.80
2023-03-20T07:06:50.011Z,72.14
2023-03-20T07:09:22.352Z,73.23
2023-03-20T07:11:50.864Z,73.59
2023-03-20T07:14:18.627Z,73.15
2023-03-20T07:16:46.303Z,73.03
2023-03-20T07:19:14.126Z,72.90
2023-03-20T07:21:43.408Z,72.96
2023-03-20T07:24:10.986Z,72.75
2023-03-20T07:26:41.229Z,73.73
2023-03-20T07:29:08.832Z,72.87
2023-03-20T07:31:36.498Z,71.61
2023-03-20T07:34:04.254Z,70.70
2023-03-20T07:36:31.824Z,71.24
2023-03-20T07:39:00.749Z,70.35
2023-03-20T07:41:28.340Z,71.34
2023-03-20T07:43:56.012Z,71.76
2023-03-20T07:46:23.669Z,69.58
2023-03-20T07:48:51.472Z,71.78
2023-03-20T07:51:19.125Z,71.77
2023-03-20T07:53:46.696Z,70.50
2023-03-20T07:56:15.611Z,69.18
2023-03-20T07:58:43.449Z,69.69
2023-03-20T08:01:11.462Z,70.52
2023-03-20T08:03:40.448Z,68.52
2023-03-20T08:06:09.703Z,68.94
2023-03-20T08:08:38.126Z,67.83
2023-03-20T08:11:05.971Z,67.69
2023-03-20T08:13:34.968Z,70.91
2023-03-20T08:16:02.594Z,68.89
2023-03-20T08:18:32.979Z,68.00
2023-03-20T08:21:00.552Z,68.21
2023-03-20T08:23:28.581Z,70.02
2023-03-20T08:25:56.414Z,69.51
2023-03-20T08:28:36.476Z,68.23
2023-03-20T08:31:14.025Z,66.50
2023-03-20T08:33:41.635Z,67.62
2023-03-20T08:36:10.167Z,65.81
2023-03-20T08:38:39.337Z,67.62
2023-03-20T08:41:07.829Z,65.48
2023-03-20T08:43:36.344Z,66.69
2023-03-20T08:46:04.143Z,65.36
2023-03-20T08:48:33.241Z,64.86
2023-03-20T08:51:01.380Z,64.40
2023-03-20T08:53:29.196Z,64.14
2023-03-20T08:55:57.566Z,62.99
2023-03-20T08:58:25.152Z,62.78
2023-03-20T09:00:52.735Z,63.32
2023-03-20T09:03:22.117Z,62.45
2023-03-20T09:05:52.432Z,64.62
2023-03-20T09:08:20.652Z,62.02
2023-03-20T09:10:52.134Z,62.32
2023-03-20T09:13:27.514Z,61.95
2023-03-20T09:15:57.348Z,63.57
2023-03-20T09:18:26.533Z,63.97
2023-03-20T09:20:56.551Z,62.06
2023-03-20T09:23:24.478Z,61.82
2023-03-20T09:25:52.096Z,62.37
2023-03-20T09:28:19.856Z,60.42
2023-03-20T09:30:47.502Z,59.55
2023-03-20T09:33:16.072Z,59.06
2023-03-20T09:35:44.097Z,60.97
2023-03-20T09:38:14.186Z,58.90
2023-03-20T09:40:52.420Z,56.72
2023-03-20T09:43:29.942Z,58.65
2023-03-20T09:46:06.841Z,54.11
2023-03-20T09:48:41.966Z,54.42
2023-03-20T09:51:19.858Z,54.00
2023-03-20T09:54:03.638Z,53.52
2023-03-20T09:56:32.441Z,54.25
2023-03-20T09:59:02.396Z,56.71
2023-03-20T10:01:39.571Z,52.47
2023-03-20T10:04:10.641Z,51.26
2023-03-20T10:06:38.858Z,51.89
2023-03-20T10:09:16.714Z,48.44
2023-03-20T10:12:01.689Z,50.43
2023-03-20T10:14:40.729Z,44.56
2023-03-20T10:17:22.136Z,45.20
2023-03-20T10:19:55.036Z,45.70
2023-03-20T10:22:25.902Z,44.29
2023-03-20T10:24:59.766Z,40.49
2023-03-20T10:27:34.131Z,42.33
2023-03-20T10:30:19.791Z,40.92
2023-03-20T10:32:55.606Z,40.64
2023-03-20T10:35:41.257Z,39.02
2023-03-20T10:38:25.870Z,36.34
2023-03-20T10:40:58.114Z,37.78
2023-03-20T10:43:28.024Z,37.98
2023-03-20T10:46:01.783Z,41.27
2023-03-20T10:48:37.582Z,40.84
2023-03-20T10:51:06.765Z,40.01
2023-03-20T10:53:38.931Z,41.33
2023-03-20T10:56:15.080Z,41.72
2023-03-20T10:58:48.453Z,41.87
2023-03-20T11:01:16.203Z,42.55
2023-03-20T11:03:44.112Z,43.44
2023-03-20T11:06:20.171Z,45.98
2023-03-20T11:08:52.085Z,44.95
2023-03-20T11:11:26.801Z,46.20
2023-03-20T11:13:56.301Z,45.85
2023-03-20T11:16:26.265Z,45.46
2023-03-20T11:18:55.099Z,47.17
2023-03-20T11:21:26.053Z,47.13
2023-03-20T11:23:54.430Z,48.76
2023-03-20T11:26:41.848Z,46.89
2023-03-20T11:29:21.649Z,46.37
2023-03-20T11:31:49.369Z,48.91
2023-03-20T11:34:26.708Z,47.74
2023-03-20T11:37:09.717Z,47.17
2023-03-20T11:39:40.127Z,48.51
2023-03-20T11:42:23.857Z,47.42
2023-03-20T11:44:58.853Z,47.83
2023-03-20T11:47:28.700Z,49.86
2023-03-20T11:49:58.614Z,48.40
2023-03-20T11:52:28.951Z,50.69
2023-03-20T11:54:59.069Z,50.79
2023-03-20T11:57:33.076Z,52.49
2023-03-20T12:00:04.142Z,51.05
2023-03-20T12:02:32.005Z,51.69
2023-03-20T12:05:01.258Z,52.37
2023-03-20T12:07:32.001Z,53.97
2023-03-20T12:10:03.772Z,51.34
2023-03-20T12:12:42.089Z,52.05
2023-03-20T12:15:18.388Z,52.79
2023-03-20T12:17:51.836Z,52.53
2023-03-20T12:20:30.897Z,53.23
2023-03-20T12:23:07.597Z,53.72
2023-03-20T12:25:39.768Z,55.38
2023-03-20T12:28:16.447Z,55.89
2023-03-20T12:30:55.894Z,53.74
2023-03-20T12:33:36.291Z,52.49
2023-03-20T12:36:06.363Z,54.98
2023-03-20T12:38:34.915Z,52.98
2023-03-20T12:41:12.726Z,54.12
2023-03-20T12:44:00.290Z,52.36
2023-03-20T12:46:36.584Z,55.16
2023-03-20T12:49:13.645Z,52.30
2023-03-20T12:51:52.959Z,53.45
2023-03-20T12:54:34.968Z,54.16
2023-03-20T12:57:11.637Z,52.53
2023-03-20T12:59:52.385Z,51.54
2023-03-20T13:02:32.702Z,53.41
2023-03-20T13:05:10.273Z,52.85
2023-03-20T13:07:53.727Z,54.83
2023-03-20T13:10:23.103Z,54.63
2023-03-20T13:13:01.660Z,53.14
2023-03-20T13:15:39.795Z,55.29
2023-03-20T13:18:18.592Z,52.29
2023-03-20T13:20:51.307Z,55.34
2023-03-20T13:23:24.524Z,52.83
2023-03-20T13:26:14.774Z,52.06
2023-03-20T13:28:53.306Z,53.23
2023-03-20T13:31:59.219Z,52.47
2023-03-20T13:34:36.309Z,52.09
2023-03-20T13:37:22.856Z,50.99
2023-03-20T13:40:02.016Z,52.49
2023-03-20T13:42:34.850Z,54.93
2023-03-20T13:45:07.116Z,51.90
2023-03-20T13:47:37.722Z,54.18
2023-03-20T13:50:19.271Z,53.31
2023-03-20T13:52:53.055Z,53.82
2023-03-20T13:55:28.559Z,55.30
2023-03-20T13:58:11.871Z,52.68
2023-03-20T14:00:47.545Z,52.50
2023-03-20T14:03:28.436Z,52.47
2023-03-20T14:05:56.591Z,55.07
2023-03-20T14:08:36.791Z,53.35
2023-03-20T14:11:32.352Z,52.70
2023-03-20T14:14:05.518Z,55.09
2023-03-20T14:16:33.171Z,52.76
2023-03-20T14:19:12.904Z,51.52
2023-03-20T14:21:41.212Z,52.01
2023-03-20T14:24:15.071Z,52.68
2023-03-20T14:26:43.337Z,52.60
2023-03-20T14:29:34.056Z,51.91
2023-03-20T14:32:24.381Z,50.21
2023-03-20T14:34:54.856Z,51.57
2023-03-20T14:37:37.877Z,51.35
2023-03-20T14:40:16.343Z,49.68
2023-03-20T14:42:55.997Z,50.30
2023-03-20T14:45:38.237Z,49.30
2023-03-20T14:48:12.718Z,52.11
2023-03-20T14:51:03.026Z,50.17
2023-03-20T14:53:32.900Z,52.40
2023-03-20T14:56:08.390Z,52.98
2023-03-20T14:58:50.740Z,51.91
2023-03-20T15:01:26.136Z,52.84
2023-03-20T15:03:57.480Z,53.05
2023-03-20T15:06:28.071Z,53.05
2023-03-20T15:08:59.400Z,53.03
2023-03-20T15:11:27.465Z,52.31
2023-03-20T15:13:56.602Z,50.88
2023-03-20T15:16:29.740Z,50.56
2023-03-20T15:18:58.060Z,50.78
2023-03-20T15:21:34.151Z,52.97
2023-03-20T15:24:02.565Z,50.86
2023-03-20T15:26:32.952Z,49.79
2023-03-20T15:29:03.503Z,53.03
2023-03-20T15:31:33.171Z,51.05
2023-03-20T15:34:02.868Z,51.26
2023-03-20T15:36:36.939Z,53.46
2023-03-20T15:39:08.258Z,50.86
2023-03-20T15:41:39.142Z,51.87
2023-03-20T15:44:19.982Z,53.78
2023-03-20T15:46:56.953Z,51.85
2023-03-20T15:49:25.526Z,54.11
2023-03-20T15:51:58.227Z,54.30
2023-03-20T15:54:26.094Z,53.96
2023-03-20T15:56:57.481Z,54.66
2023-03-20T15:59:29.483Z,55.35
2023-03-20T16:02:00.439Z,52.42
2023-03-20T16:04:29.064Z,52.28
2023-03-20T16:06:59.426Z,54.88
2023-03-20T16:09:28.990Z,54.65
2023-03-20T16:11:59.548Z,55.40
2023-03-20T16:14:30.074Z,53.33
2023-03-20T16:17:00.365Z,53.20
2023-03-20T16:19:29.887Z,54.17
2023-03-20T16:22:02.034Z,55.02
2023-03-20T16:24:31.749Z,56.32
2023-03-20T16:26:59.416Z,55.06
2023-03-20T16:29:29.004Z,53.78
2023-03-20T16:32:00.312Z,55.68
2023-03-20T16:34:33.052Z,54.99
2023-03-20T16:37:07.223Z,53.86
2023-03-20T16:39:34.826Z,53.90
2023-03-20T16:42:21.449Z,53.24
2023-03-20T16:44:54.834Z,54.70
2023-03-20T16:47:24.945Z,54.14
2023-03-20T16:50:10.633Z,54.74
2023-03-20T16:52:42.457Z,56.44
2023-03-20T16:55:17.052Z,56.13
2023-03-20T16:57:48.589Z,54.85
2023-03-20T17:00:25.645Z,54.92
2023-03-20T17:03:00.795Z,56.17
2023-03-20T17:05:43.381Z,55.00
2023-03-20T17:08:15.992Z,55.79
2023-03-20T17:10:49.901Z,55.53
2023-03-20T17:13:17.414Z,55.30
2023-03-20T17:15:45.718Z,55.29
2023-03-20T17:18:14.406Z,56.47
2023-03-20T17:20:42.237Z,55.75
2023-03-20T17:23:16.131Z,55.99
2023-03-20T17:25:44.168Z,56.12
2023-03-20T17:28:19.965Z,56.08
2023-03-20T17:30:48.832Z,56.54
2023-03-20T17:33:18.960Z,56.86
2023-03-20T17:35:47.725Z,59.06
2023-03-20T17:38:22.485Z,58.57
2023-03-20T17:40:51.228Z,60.00
2023-03-20T17:43:19.992Z,60.25
2023-03-20T17:45:48.393Z,57.87
2023-03-20T17:48:18.492Z,58.11
2023-03-20T17:50:46.621Z,60.85
2023-03-20T17:53:17.076Z,62.34
2023-03-20T17:55:46.094Z,60.53
2023-03-20T17:58:18.480Z,60.80
2023-03-20T18:00:46.271Z,58.93
2023-03-20T18:03:15.258Z,58.93
2023-03-20T18:05:43.140Z,60.48
2023-03-20T18:08:14.943Z,62.36
2023-03-20T18:10:43.482Z,60.44
2023-03-20T18:13:12.361Z,60.14
2023-03-20T18:15:40.669Z,62.58
2023-03-20T18:18:09.450Z,61.83
2023-03-20T18:20:40.959Z,63.79
2023-03-20T18:23:09.084Z,63.94
2023-03-20T18:25:37.034Z,62.30
2023-03-20T18:28:07.931Z,63.68
2023-03-20T18:30:39.347Z,62.91
2023-03-20T18:33:07.203Z,60.40
2023-03-20T18:35:35.745Z,62.43
2023-03-20T18:38:04.033Z,62.45
2023-03-20T18:40:33.428Z,62.98
2023-03-20T18:43:01.315Z,63.39
2023-03-20T18:45:30.725Z,63.43
2023-03-20T18:48:03.653Z,63.56
2023-03-20T18:50:37.504Z,60.41
2023-03-20T18:53:11.655Z,61.34
2023-03-20T18:55:47.727Z,62.29
2023-03-20T18:58:25.005Z,64.19
2023-03-20T19:00:55.346Z,63.46
2023-03-20T19:24:01.255Z,65.09
2023-03-20T20:16:56.253Z,59.35
2023-03-20T20:31:29.710Z,64.84
2023-03-20T20:35:14.833Z,65.29
2023-03-20T20:44:41.121Z,64.66
2023-03-20T20:47:21.546Z,62.50
2023-03-20T20:49:51.925Z,60.03
2023-03-20T20:52:21.270Z,64.98
2023-03-20T20:54:50.988Z,61.99
2023-03-20T20:57:20.766Z,64.26
2023-03-20T20:59:59.566Z,64.86
2023-03-20T21:02:29.591Z,64.43
2023-03-20T21:05:00.716Z,64.78
2023-03-20T21:07:36.726Z,64.83
2023-03-20T21:10:06.726Z,64.15
2023-03-20T21:12:55.980Z,64.62
2023-03-20T21:15:27.822Z,62.00
2023-03-20T21:18:01.377Z,64.20
2023-03-20T21:20:33.587Z,62.12
2023-03-20T21:23:03.765Z,63.84
2023-03-20T21:25:46.345Z,64.78
2023-03-20T21:28:18.985Z,64.06
2023-03-20T21:31:12.401Z,65.77
2023-03-20T21:33:39.213Z,66.24
2023-03-20T21:36:10.730Z,63.44
2023-03-20T21:39:06.779Z,64.72
2023-03-20T21:41:29.222Z,65.78
2023-03-20T21:44:01.244Z,63.68
2023-03-20T21:53:10.523Z,60.92
2023-03-20T22:04:19.120Z,65.46
2023-03-20T22:07:23.905Z,66.70
2023-03-20T22:13:01.391Z,65.16
2023-03-20T22:15:34.082Z,66.46
2023-03-20T22:21:36.518Z,65.82
2023-03-20T22:24:14.852Z,67.26
2023-03-20T22:30:02.619Z,62.81
2023-03-20T22:32:40.869Z,65.85
2023-03-20T22:38:21.802Z,66.44
2023-03-20T22:41:18.218Z,66.25
2023-03-20T22:46:25.564Z,65.12
2023-03-20T22:48:54.462Z,67.26
2023-03-20T22:51:32.527Z,67.42
2023-03-20T22:54:08.647Z,65.95
2023-03-20T22:59:20.346Z,65.15
2023-03-20T23:04:31.131Z,65.90
2023-03-20T23:07:02.004Z,66.13
2023-03-20T23:09:33.794Z,66.93
2023-03-20T23:12:03.849Z,67.08
2023-03-20T23:14:45.529Z,66.27
2023-03-20T23:17:15.224Z,66.75
2023-03-20T23:20:05.313Z,66.60
2023-03-20T23:22:45.246Z,64.71
2023-03-20T23:25:23.596Z,65.74
2023-03-20T23:27:56.240Z,67.27
2023-03-20T23:30:43.518Z,67.20
2023-03-20T23:33:13.067Z,67.90
2023-03-20T23:35:40.761Z,66.05
2023-03-20T23:38:08.291Z,64.28
2023-03-20T23:40:36.313Z,65.59
2023-03-20T23:43:04.306Z,66.50
2023-03-20T23:45:31.892Z,68.76
2023-03-20T23:47:59.458Z,67.05
2023-03-20T23:50:36.904Z,63.79
2023-03-20T23:53:20.037Z,63.81
2023-03-20T23:55:50.115Z,63.50
2023-03-20T23:58:17.842Z,63.44
